createdAt,value
2023-04-02T00:04:04.913Z,83.3575
2023-04-02T00:04:04.913Z,83.5325
2023-04-02T00:04:50.022Z,83.2888
2023-04-02T00:05:52.067Z,83.2212
2023-04-02T00:06:54.563Z,83.2709
2023-04-02T00:07:56.866Z,83.1600
2023-04-02T00:08:58.939Z,83.2729
2023-04-02T00:10:00.993Z,82.9462
2023-04-02T00:13:05.084Z,83.2510
2023-04-02T00:13:05.084Z,83.1998
2023-04-02T00:14:07.380Z,83.3133
2023-04-02T00:18:34.586Z,83.4606
2023-04-02T00:18:34.586Z,83.4104
2023-04-02T00:19:19.637Z,82.5433
2023-04-02T00:20:24.444Z,82.9647
2023-04-02T00:21:23.133Z,82.9778
2023-04-02T00:22:25.510Z,83.0577
2023-04-02T00:23:27.507Z,83.1317
2023-04-02T00:24:29.583Z,83.1637
2023-04-02T00:27:07.914Z,83.5362
2023-04-02T00:27:07.914Z,83.6866
2023-04-02T00:27:53.144Z,83.8146
2023-04-02T00:28:55.135Z,84.2233
2023-04-02T00:29:57.519Z,84.4299
2023-04-02T00:30:59.754Z,85.2974
2023-04-02T00:32:01.830Z,86.7741
2023-04-02T00:33:04.292Z,87.9821
2023-04-02T00:38:46.800Z,88.6625
2023-04-02T00:38:46.800Z,88.7327
2023-04-02T00:39:36.740Z,88.9307
2023-04-02T00:40:39.011Z,89.3253
2023-04-02T00:41:41.067Z,88.9113
2023-04-02T00:42:43.129Z,89.1402
2023-04-02T00:43:45.190Z,88.9938
2023-04-02T00:44:47.245Z,89.1138
2023-04-02T00:45:49.482Z,88.7340
2023-04-02T00:48:25.531Z,88.8174
2023-04-02T00:48:25.531Z,88.6595
2023-04-02T00:49:27.705Z,88.4949
2023-04-02T00:50:30.124Z,88.5412
2023-04-02T00:51:32.148Z,88.3280
2023-04-02T00:52:34.427Z,88.8279
2023-04-02T00:53:36.743Z,88.0667
2023-04-02T00:54:38.914Z,87.7374
2023-04-02T00:55:40.982Z,87.7796
2023-04-02T00:56:43.422Z,87.9649
2023-04-02T00:57:45.429Z,87.9225
2023-04-02T00:58:47.487Z,87.7250
2023-04-02T00:59:49.934Z,87.9319
2023-04-02T01:00:51.964Z,87.9003
2023-04-02T01:01:54.029Z,88.0666
2023-04-02T01:02:56.338Z,87.8373
2023-04-02T01:03:58.468Z,87.9429
2023-04-02T01:05:00.928Z,88.0162
2023-04-02T01:06:03.193Z,88.1278
2023-04-02T01:07:05.244Z,87.8791
2023-04-02T01:08:07.281Z,87.9147
2023-04-02T01:09:09.295Z,88.0489
2023-04-02T01:10:11.324Z,88.0162
2023-04-02T01:11:13.427Z,87.9770
2023-04-02T01:12:15.654Z,88.1271
2023-04-02T01:13:17.696Z,88.1537
2023-04-02T01:14:19.726Z,88.0920
2023-04-02T01:15:21.758Z,88.2071
2023-04-02T01:16:23.872Z,88.1452
2023-04-02T01:17:26.149Z,87.9116
2023-04-02T01:18:28.284Z,87.6694
2023-04-02T01:19:30.254Z,87.4161
2023-04-02T01:20:32.274Z,87.6372
2023-04-02T01:21:34.331Z,87.2942
2023-04-02T01:22:36.681Z,87.6507
2023-04-02T01:23:38.705Z,87.9650
2023-04-02T01:24:40.821Z,87.5061
2023-04-02T01:25:42.838Z,87.6485
2023-04-02T01:26:44.889Z,87.9856
2023-04-02T01:27:46.918Z,87.9826
2023-04-02T01:28:48.936Z,87.4130
2023-04-02T01:29:51.053Z,87.2428
2023-04-02T01:30:53.081Z,87.1975
2023-04-02T01:31:55.221Z,87.2719
2023-04-02T01:32:57.274Z,87.2208
2023-04-02T01:33:59.287Z,86.8884
2023-04-02T01:36:29.799Z,87.1021
2023-04-02T01:36:29.799Z,86.4851
2023-04-02T01:37:32.027Z,86.5386
2023-04-02T01:38:34.100Z,86.7764
2023-04-02T01:39:36.094Z,86.7425
2023-04-02T01:40:38.434Z,86.7764
2023-04-02T01:41:40.482Z,86.9295
2023-04-02T01:42:42.552Z,86.7647
2023-04-02T01:43:44.599Z,86.3216
2023-04-02T01:44:46.684Z,86.3302
2023-04-02T01:45:49.006Z,86.2682
2023-04-02T01:46:51.155Z,85.9375
2023-04-02T01:47:53.372Z,86.0938
2023-04-02T01:48:55.460Z,86.3581
2023-04-02T01:49:57.523Z,85.3654
2023-04-02T01:50:59.738Z,84.7277
2023-04-02T01:52:01.756Z,84.7267
2023-04-02T01:53:04.097Z,85.0404
2023-04-02T01:54:06.155Z,85.0047
2023-04-02T01:55:08.194Z,84.9284
2023-04-02T01:56:10.232Z,85.4213
2023-04-02T01:57:12.500Z,84.9825
2023-04-02T01:58:14.609Z,84.5590
2023-04-02T01:59:16.682Z,84.9190
2023-04-02T02:00:18.926Z,84.8860
2023-04-02T02:01:21.060Z,84.9841
2023-04-02T02:02:23.242Z,85.0056
2023-04-02T02:03:25.320Z,84.6579
2023-04-02T02:04:27.627Z,84.8306
2023-04-02T02:05:29.860Z,84.8528
2023-04-02T02:06:31.911Z,85.1804
2023-04-02T02:07:33.939Z,85.4413
2023-04-02T02:08:36.032Z,85.5926
2023-04-02T02:09:38.071Z,85.8840
2023-04-02T02:10:40.283Z,85.8225
2023-04-02T02:11:42.321Z,85.6986
2023-04-02T02:12:44.348Z,85.5308
2023-04-02T02:13:46.427Z,85.8398
2023-04-02T02:14:48.484Z,86.1310
2023-04-02T02:15:50.537Z,85.5289
2023-04-02T02:16:52.609Z,85.5888
2023-04-02T02:17:54.734Z,85.2205
2023-04-02T02:18:56.798Z,85.0517
2023-04-02T02:19:58.906Z,85.2319
2023-04-02T02:21:00.930Z,85.2084
2023-04-02T02:22:02.986Z,85.5888
2023-04-02T02:23:05.040Z,85.7384
2023-04-02T02:24:07.249Z,84.8628
2023-04-02T02:25:09.300Z,85.8745
2023-04-02T02:26:11.389Z,84.7657
2023-04-02T02:27:13.421Z,83.7407
2023-04-02T02:28:15.493Z,84.4458
2023-04-02T02:29:17.592Z,85.0676
2023-04-02T02:30:19.665Z,84.8966
2023-04-02T02:31:21.718Z,84.6207
2023-04-02T02:32:23.802Z,84.5567
2023-04-02T02:33:25.914Z,84.7620
2023-04-02T02:34:27.993Z,84.4670
2023-04-02T02:35:30.051Z,83.9429
2023-04-02T02:36:32.103Z,82.5717
2023-04-02T02:37:34.170Z,82.5673
2023-04-02T02:38:36.244Z,83.0132
2023-04-02T02:39:38.281Z,84.1761
2023-04-02T02:40:40.339Z,84.9679
2023-04-02T02:41:42.416Z,85.1890
2023-04-02T02:42:44.478Z,84.7323
2023-04-02T02:43:46.522Z,84.3006
2023-04-02T02:44:49.326Z,84.3378
2023-04-02T02:45:51.410Z,84.7896
2023-04-02T02:46:53.465Z,84.7000
2023-04-02T02:47:55.743Z,84.9705
2023-04-02T02:48:57.791Z,85.4411
2023-04-02T02:49:59.843Z,85.3587
2023-04-02T02:51:01.867Z,85.2317
2023-04-02T02:52:03.906Z,85.1254
2023-04-02T02:53:06.160Z,84.8014
2023-04-02T02:54:08.275Z,85.0554
2023-04-02T02:55:10.385Z,84.6251
2023-04-02T02:56:12.400Z,84.7184
2023-04-02T02:57:14.462Z,84.9499
2023-04-02T02:58:16.516Z,84.8773
2023-04-02T02:59:18.581Z,84.6140
2023-04-02T03:00:20.596Z,84.7930
2023-04-02T03:01:22.714Z,84.3890
2023-04-02T03:02:24.880Z,83.9656
2023-04-02T03:03:27.079Z,84.1180
2023-04-02T03:04:29.217Z,84.0481
2023-04-02T03:05:31.327Z,83.7597
2023-04-02T03:06:33.358Z,83.9791
2023-04-02T03:07:35.424Z,84.1343
2023-04-02T03:08:37.451Z,84.3979
2023-04-02T03:09:39.477Z,84.8076
2023-04-02T03:10:41.575Z,84.6196
2023-04-02T03:11:43.576Z,84.4093
2023-04-02T03:12:45.607Z,84.1459
2023-04-02T03:13:47.653Z,84.0540
2023-04-02T03:14:49.679Z,84.3233
2023-04-02T03:15:51.754Z,84.3219
2023-04-02T03:16:53.793Z,84.2299
2023-04-02T03:17:56.117Z,84.2922
2023-04-02T03:18:58.103Z,84.6361
2023-04-02T03:20:00.189Z,84.4188
2023-04-02T03:21:02.254Z,84.3321
2023-04-02T03:22:04.274Z,84.5640
2023-04-02T03:23:06.317Z,84.1485
2023-04-02T03:24:08.366Z,84.4675
2023-04-02T03:25:10.430Z,84.5264
2023-04-02T03:26:12.544Z,85.2015
2023-04-02T03:27:15.289Z,85.4575
2023-04-02T03:28:17.350Z,85.3242
2023-04-02T03:29:19.401Z,84.5717
2023-04-02T03:30:21.673Z,84.6850
2023-04-02T03:31:23.834Z,84.9026
2023-04-02T03:32:25.899Z,85.1082
2023-04-02T03:33:27.937Z,84.6290
2023-04-02T03:34:29.961Z,84.6905
2023-04-02T03:35:32.191Z,83.9379
2023-04-02T03:36:34.269Z,84.5186
2023-04-02T03:37:36.515Z,84.5858
2023-04-02T03:38:38.584Z,84.1789
2023-04-02T03:39:40.633Z,84.2374
2023-04-02T03:40:42.685Z,84.5563
2023-04-02T03:41:44.750Z,84.6951
2023-04-02T03:42:46.799Z,84.5513
2023-04-02T03:43:48.859Z,84.6501
2023-04-02T03:44:51.226Z,84.7512
2023-04-02T03:45:53.288Z,84.3164
2023-04-02T03:46:55.413Z,84.5998
2023-04-02T03:47:57.505Z,84.3203
2023-04-02T03:48:59.535Z,84.2685
2023-04-02T03:50:01.609Z,84.2485
2023-04-02T03:51:03.658Z,83.8740
2023-04-02T03:52:05.723Z,84.0931
2023-04-02T03:53:07.928Z,84.1160
2023-04-02T03:54:09.983Z,84.1434
2023-04-02T03:55:12.021Z,84.1378
2023-04-02T03:56:14.100Z,83.7424
2023-04-02T03:57:16.232Z,83.6640
2023-04-02T03:58:18.335Z,83.3163
2023-04-02T03:59:20.292Z,83.6056
2023-04-02T04:00:22.343Z,83.7952
2023-04-02T04:01:24.349Z,83.3923
2023-04-02T04:02:26.584Z,83.5041
2023-04-02T04:03:28.683Z,83.5592
2023-04-02T04:04:30.786Z,83.5562
2023-04-02T04:05:33.101Z,83.3422
2023-04-02T04:06:35.273Z,83.6239
2023-04-02T04:07:37.496Z,83.5974
2023-04-02T04:08:39.517Z,83.1091
2023-04-02T04:09:41.556Z,82.3001
2023-04-02T04:10:43.637Z,81.2474
2023-04-02T04:11:45.707Z,81.0851
2023-04-02T04:12:47.766Z,81.0334
2023-04-02T04:13:49.799Z,80.3914
2023-04-02T04:14:51.871Z,80.8667
2023-04-02T04:15:53.895Z,81.1655
2023-04-02T04:16:55.979Z,81.2918
2023-04-02T04:17:58.070Z,81.7147
2023-04-02T04:19:00.065Z,81.5364
2023-04-02T04:20:02.135Z,81.2916
2023-04-02T04:21:04.144Z,81.2369
2023-04-02T04:22:06.180Z,81.5541
2023-04-02T04:23:08.269Z,81.6999
2023-04-02T04:24:10.318Z,81.1686
2023-04-02T04:25:12.644Z,80.8652
2023-04-02T04:26:14.687Z,80.8930
2023-04-02T04:27:16.709Z,81.0096
2023-04-02T04:28:18.771Z,81.0836
2023-04-02T04:29:20.819Z,81.0955
2023-04-02T04:30:22.838Z,81.1241
2023-04-02T04:31:25.992Z,80.7526
2023-04-02T04:32:28.183Z,81.1647
2023-04-02T04:33:30.235Z,81.3910
2023-04-02T04:34:32.303Z,81.5298
2023-04-02T04:35:34.616Z,81.4531
2023-04-02T04:36:36.919Z,81.0468
2023-04-02T04:37:39.334Z,80.7343
2023-04-02T04:38:42.164Z,80.8339
2023-04-02T04:39:44.430Z,81.0764
2023-04-02T04:40:46.465Z,81.2489
2023-04-02T04:41:48.486Z,81.0797
2023-04-02T04:42:50.514Z,80.9859
2023-04-02T04:43:52.602Z,81.0932
2023-04-02T04:44:54.846Z,81.2667
2023-04-02T04:45:56.920Z,81.4121
2023-04-02T04:46:58.987Z,81.4111
2023-04-02T04:48:01.080Z,81.1962
2023-04-02T04:49:03.164Z,80.9445
2023-04-02T04:50:05.247Z,80.9478
2023-04-02T04:51:07.309Z,80.9233
2023-04-02T04:52:09.410Z,81.3458
2023-04-02T04:53:11.487Z,81.3790
2023-04-02T04:54:13.578Z,81.1299
2023-04-02T04:55:15.940Z,81.5305
2023-04-02T04:56:19.609Z,81.6760
2023-04-02T04:57:18.654Z,81.5719
2023-04-02T04:58:20.778Z,81.7266
2023-04-02T04:59:23.162Z,81.7056
2023-04-02T05:00:25.183Z,81.1170
2023-04-02T05:01:27.388Z,80.9764
2023-04-02T05:02:29.518Z,81.2031
2023-04-02T05:03:31.547Z,81.2663
2023-04-02T05:04:33.915Z,81.5275
2023-04-02T05:05:36.208Z,81.2598
2023-04-02T05:06:38.485Z,81.0386
2023-04-02T05:07:40.609Z,81.0791
2023-04-02T05:08:42.706Z,81.1820
2023-04-02T05:09:44.826Z,81.8775
2023-04-02T05:10:46.904Z,81.7655
2023-04-02T05:11:49.005Z,81.4654
2023-04-02T05:12:51.311Z,81.1968
2023-04-02T05:13:53.405Z,81.4035
2023-04-02T05:14:55.755Z,81.3524
2023-04-02T05:15:59.444Z,80.8952
2023-04-02T05:16:59.579Z,80.7982
2023-04-02T05:18:01.691Z,81.0296
2023-04-02T05:19:03.817Z,80.5218
2023-04-02T05:20:05.936Z,80.2251
2023-04-02T05:21:07.979Z,80.1136
2023-04-02T05:22:10.081Z,80.2099
2023-04-02T05:23:12.214Z,80.1155
2023-04-02T05:24:14.293Z,79.4520
2023-04-02T05:25:16.420Z,80.0017
2023-04-02T05:26:18.520Z,80.4395
2023-04-02T05:27:20.615Z,80.7663
2023-04-02T05:28:22.725Z,81.1301
2023-04-02T05:29:24.834Z,81.0471
2023-04-02T05:30:26.994Z,80.7753
2023-04-02T05:31:29.142Z,80.6449
2023-04-02T05:32:31.258Z,80.3559
2023-04-02T05:33:33.348Z,80.3714
2023-04-02T05:34:35.462Z,80.5181
2023-04-02T05:35:37.961Z,80.6648
2023-04-02T05:36:40.235Z,80.7077
2023-04-02T05:37:42.345Z,80.8029
2023-04-02T05:38:44.452Z,80.5896
2023-04-02T05:39:46.612Z,80.7824
2023-04-02T05:40:48.663Z,80.3994
2023-04-02T05:41:50.735Z,80.3842
2023-04-02T05:42:52.865Z,80.5219
2023-04-02T05:43:54.914Z,80.5842
2023-04-02T05:44:57.004Z,80.6064
2023-04-02T05:45:59.081Z,80.4937
2023-04-02T05:47:01.255Z,80.3646
2023-04-02T05:48:03.366Z,80.2625
2023-04-02T05:49:05.393Z,80.3183
2023-04-02T05:50:07.493Z,80.2831
2023-04-02T05:51:09.650Z,80.0523
2023-04-02T05:52:11.763Z,80.2163
2023-04-02T05:53:13.836Z,80.2138
2023-04-02T05:54:15.893Z,80.2032
2023-04-02T05:55:17.963Z,80.1752
2023-04-02T05:56:20.093Z,79.9610
2023-04-02T05:57:29.579Z,80.0268
2023-04-02T05:58:35.450Z,80.1178
2023-04-02T05:59:24.443Z,79.9834
2023-04-02T06:00:26.511Z,80.0782
2023-04-02T06:01:28.620Z,80.0392
2023-04-02T06:02:31.283Z,79.9028
2023-04-02T06:03:33.501Z,80.0126
2023-04-02T06:04:35.616Z,79.9531
2023-04-02T06:05:37.835Z,80.0669
2023-04-02T06:06:39.986Z,80.3003
2023-04-02T06:07:42.082Z,80.7021
2023-04-02T06:08:44.179Z,81.0530
2023-04-02T06:09:46.249Z,80.8109
2023-04-02T06:10:48.358Z,80.8811
2023-04-02T06:11:50.533Z,80.6525
2023-04-02T06:12:52.574Z,80.5614
2023-04-02T06:13:54.658Z,80.3467
2023-04-02T06:14:56.995Z,80.4658
2023-04-02T06:15:59.090Z,80.3875
2023-04-02T06:17:01.309Z,80.2717
2023-04-02T06:18:03.485Z,80.3313
2023-04-02T06:19:05.618Z,80.1990
2023-04-02T06:20:07.722Z,79.8259
2023-04-02T06:21:09.814Z,79.6479
2023-04-02T06:22:11.987Z,79.6956
2023-04-02T06:23:14.140Z,79.4502
2023-04-02T06:24:16.241Z,79.0676
2023-04-02T06:25:18.352Z,78.8410
2023-04-02T06:26:20.445Z,78.9361
2023-04-02T06:27:22.573Z,78.7114
2023-04-02T06:28:24.660Z,78.5128
2023-04-02T06:29:26.770Z,78.8438
2023-04-02T06:30:28.900Z,78.2737
2023-04-02T06:31:30.942Z,78.2098
2023-04-02T06:32:33.227Z,77.4757
2023-04-02T06:33:35.357Z,77.1322
2023-04-02T06:34:37.461Z,77.4773
2023-04-02T06:35:39.582Z,77.8742
2023-04-02T06:36:41.672Z,77.2972
2023-04-02T06:37:43.824Z,77.0676
2023-04-02T06:38:45.933Z,76.9947
2023-04-02T06:39:48.040Z,77.1339
2023-04-02T06:40:50.150Z,77.9033
2023-04-02T06:41:52.253Z,77.4570
2023-04-02T06:42:54.363Z,76.9071
2023-04-02T06:43:56.484Z,78.1146
2023-04-02T06:44:58.569Z,77.9674
2023-04-02T06:46:00.693Z,77.7639
2023-04-02T06:47:03.237Z,77.1045
2023-04-02T06:48:05.396Z,77.0384
2023-04-02T06:49:07.502Z,76.8787
2023-04-02T06:50:09.601Z,77.3910
2023-04-02T06:51:11.692Z,77.3604
2023-04-02T06:52:13.778Z,77.2659
2023-04-02T06:53:15.937Z,77.6482
2023-04-02T06:54:18.032Z,77.9036
2023-04-02T06:55:20.163Z,78.3013
2023-04-02T06:56:22.253Z,77.7463
2023-04-02T06:57:24.417Z,77.3015
2023-04-02T06:58:26.530Z,77.1692
2023-04-02T06:59:28.657Z,76.9040
2023-04-02T07:00:30.747Z,77.0076
2023-04-02T07:01:32.871Z,76.4821
2023-04-02T07:02:35.044Z,76.2609
2023-04-02T07:03:37.203Z,76.6944
2023-04-02T07:04:39.351Z,76.5586
2023-04-02T07:05:42.964Z,76.3043
2023-04-02T07:06:41.726Z,76.3443
2023-04-02T07:07:43.806Z,76.1016
2023-04-02T07:08:45.942Z,76.0029
2023-04-02T07:09:48.049Z,75.5837
2023-04-02T07:10:50.108Z,75.8821
2023-04-02T07:11:52.200Z,76.0637
2023-04-02T07:12:54.287Z,76.0600
2023-04-02T07:13:56.368Z,76.1278
2023-04-02T07:14:58.450Z,75.6724
2023-04-02T07:16:00.598Z,76.0399
2023-04-02T07:17:02.929Z,76.2290
2023-04-02T07:18:05.018Z,76.1345
2023-04-02T07:19:07.265Z,76.0297
2023-04-02T07:20:09.342Z,76.2281
2023-04-02T07:21:11.397Z,75.5562
2023-04-02T07:22:13.493Z,75.1811
2023-04-02T07:23:17.037Z,75.6486
2023-04-02T07:24:15.790Z,75.7571
2023-04-02T07:25:17.908Z,74.5819
2023-04-02T07:26:20.265Z,74.9571
2023-04-02T07:27:22.357Z,74.4100
2023-04-02T07:28:24.506Z,72.5691
2023-04-02T07:29:26.643Z,73.3081
2023-04-02T07:30:28.763Z,74.2090
2023-04-02T07:31:30.941Z,73.6216
2023-04-02T07:32:33.071Z,73.7991
2023-04-02T07:33:35.142Z,74.6053
2023-04-02T07:34:35.379Z,74.5638
2023-04-02T07:35:37.797Z,73.6019
2023-04-02T07:36:40.050Z,74.2902
2023-04-02T07:37:42.156Z,73.8090
2023-04-02T07:38:44.235Z,72.7979
2023-04-02T07:39:46.389Z,73.7129
2023-04-02T07:40:48.490Z,70.7364
2023-04-02T07:41:50.613Z,69.5087
2023-04-02T07:42:52.748Z,71.4363
2023-04-02T07:43:54.825Z,73.5736
2023-04-02T07:44:56.979Z,73.4527
2023-04-02T07:45:59.086Z,73.7636
2023-04-02T07:47:01.373Z,74.0726
2023-04-02T07:48:03.681Z,73.0873
2023-04-02T07:49:05.844Z,70.4812
2023-04-02T07:50:07.962Z,70.3537
2023-04-02T07:51:10.106Z,66.6901
2023-04-02T07:52:12.230Z,61.6921
2023-04-02T07:53:14.294Z,61.5017
2023-04-02T07:54:16.397Z,61.7539
2023-04-02T07:55:18.502Z,64.8637
2023-04-02T07:56:20.625Z,66.4469
2023-04-02T07:57:22.735Z,64.5154
2023-04-02T07:58:24.812Z,63.0237
2023-04-02T07:59:26.885Z,66.4361
2023-04-02T08:00:30.514Z,66.1338
2023-04-02T08:01:29.355Z,66.6949
2023-04-02T08:02:31.528Z,68.0591
2023-04-02T08:03:33.754Z,70.0429
2023-04-02T08:04:35.874Z,71.0976
2023-04-02T08:05:38.283Z,71.9100
2023-04-02T08:06:40.348Z,72.8855
2023-04-02T08:07:42.434Z,73.3293
2023-04-02T08:08:44.545Z,72.0538
2023-04-02T08:09:46.721Z,70.8208
2023-04-02T08:10:48.871Z,72.3156
2023-04-02T08:11:51.184Z,72.4754
2023-04-02T08:12:53.264Z,70.5321
2023-04-02T08:13:55.364Z,68.1737
2023-04-02T08:14:57.443Z,71.4038
2023-04-02T08:15:59.576Z,69.5109
2023-04-02T08:17:01.700Z,70.0062
2023-04-02T08:18:03.820Z,73.0097
2023-04-02T08:19:05.865Z,73.3395
2023-04-02T08:20:07.978Z,71.6994
2023-04-02T08:21:10.157Z,70.6434
2023-04-02T08:22:12.161Z,68.0502
2023-04-02T08:23:14.239Z,70.0346
2023-04-02T08:24:16.364Z,70.7105
2023-04-02T08:25:18.504Z,71.3047
2023-04-02T08:26:20.628Z,69.7849
2023-04-02T08:27:22.690Z,68.1242
2023-04-02T08:28:24.786Z,66.9110
2023-04-02T08:29:26.858Z,65.4482
2023-04-02T08:30:29.012Z,65.7359
2023-04-02T08:31:31.101Z,62.9220
2023-04-02T08:32:33.261Z,67.4821
2023-04-02T08:33:35.366Z,67.4776
2023-04-02T08:34:37.473Z,70.8132
2023-04-02T08:35:39.776Z,69.1526
2023-04-02T08:36:42.154Z,70.0039
2023-04-02T08:37:44.246Z,72.1997
2023-04-02T08:38:46.351Z,71.5519
2023-04-02T08:39:48.453Z,71.4831
2023-04-02T08:40:50.576Z,71.1630
2023-04-02T08:41:52.690Z,69.3324
2023-04-02T08:42:54.787Z,68.6213
2023-04-02T08:43:56.887Z,68.8206
2023-04-02T08:44:58.984Z,69.6864
2023-04-02T08:46:01.344Z,69.9252
2023-04-02T08:47:03.453Z,71.3475
2023-04-02T08:48:05.601Z,68.6288
2023-04-02T08:49:07.733Z,72.0693
2023-04-02T08:50:09.824Z,72.0550
2023-04-02T08:51:11.950Z,71.2350
2023-04-02T08:52:14.075Z,70.9268
2023-04-02T08:53:16.205Z,71.9482
2023-04-02T08:54:18.317Z,70.5920
2023-04-02T08:55:20.422Z,70.5585
2023-04-02T08:56:22.558Z,71.5269
2023-04-02T08:57:24.736Z,70.4603
2023-04-02T08:58:27.026Z,69.9108
2023-04-02T08:59:29.146Z,70.6904
2023-04-02T09:00:31.296Z,67.9844
2023-04-02T09:01:33.396Z,63.4361
2023-04-02T09:02:35.584Z,64.3968
2023-04-02T09:03:37.708Z,64.2414
2023-04-02T09:04:39.901Z,66.5398
2023-04-02T09:05:42.149Z,69.7017
2023-04-02T09:06:44.213Z,69.8463
2023-04-02T09:07:46.377Z,68.8797
2023-04-02T09:08:46.791Z,70.0648
2023-04-02T09:09:49.033Z,69.4369
2023-04-02T09:10:51.153Z,69.4375
2023-04-02T09:11:53.302Z,70.3833
2023-04-02T09:12:55.430Z,70.1867
2023-04-02T09:13:57.600Z,69.8126
2023-04-02T09:14:59.725Z,69.6034
2023-04-02T09:16:01.936Z,68.5220
2023-04-02T09:17:04.080Z,69.3857
2023-04-02T09:18:06.202Z,70.1086
2023-04-02T09:19:08.300Z,69.7944
2023-04-02T09:20:10.408Z,66.4188
2023-04-02T09:21:12.530Z,66.7932
2023-04-02T09:22:14.644Z,66.7988
2023-04-02T09:23:16.775Z,64.5481
2023-04-02T09:24:18.865Z,63.2009
2023-04-02T09:25:20.983Z,64.8090
2023-04-02T09:26:23.108Z,65.7723
2023-04-02T09:27:25.196Z,65.1474
2023-04-02T09:28:27.302Z,66.3734
2023-04-02T09:29:29.410Z,66.0110
2023-04-02T09:30:31.511Z,65.1233
2023-04-02T09:31:33.887Z,66.6559
2023-04-02T09:32:36.055Z,68.9135
2023-04-02T09:33:38.196Z,67.5213
2023-04-02T09:34:40.294Z,65.2741
2023-04-02T09:35:42.542Z,64.5550
2023-04-02T09:36:44.757Z,65.1567
2023-04-02T09:37:46.872Z,68.4768
2023-04-02T09:38:48.982Z,68.5987
2023-04-02T09:39:51.127Z,67.0940
2023-04-02T09:40:53.214Z,67.7980
2023-04-02T09:42:04.962Z,67.9962
2023-04-02T09:42:56.440Z,69.0884
2023-04-02T09:43:58.613Z,69.0026
2023-04-02T09:45:00.712Z,67.2487
2023-04-02T09:46:02.808Z,66.2269
2023-04-02T09:47:05.017Z,66.5076
2023-04-02T09:48:07.259Z,65.1898
2023-04-02T09:49:09.378Z,65.0718
2023-04-02T09:50:11.510Z,63.3444
2023-04-02T09:51:13.615Z,63.5875
2023-04-02T09:52:15.725Z,64.2954
2023-04-02T09:53:17.812Z,65.0084
2023-04-02T09:54:19.929Z,65.1055
2023-04-02T09:55:22.026Z,65.9806
2023-04-02T09:56:24.340Z,65.2355
2023-04-02T09:57:26.461Z,65.1837
2023-04-02T09:58:28.545Z,65.5586
2023-04-02T09:59:30.644Z,65.5452
2023-04-02T10:00:32.952Z,66.8349
2023-04-02T10:01:35.252Z,66.4575
2023-04-02T10:02:37.655Z,66.1110
2023-04-02T10:03:39.804Z,66.3511
2023-04-02T10:04:41.968Z,65.6645
2023-04-02T10:05:44.319Z,64.2773
2023-04-02T10:06:46.487Z,63.9232
2023-04-02T10:07:48.548Z,63.4383
2023-04-02T10:08:50.654Z,63.0474
2023-04-02T10:09:52.737Z,63.2337
2023-04-02T10:10:55.132Z,63.5318
2023-04-02T10:11:57.206Z,62.7885
2023-04-02T10:12:59.290Z,63.2862
2023-04-02T10:14:01.407Z,63.7440
2023-04-02T10:15:03.596Z,63.3899
2023-04-02T10:16:05.838Z,63.3666
2023-04-02T10:17:08.022Z,61.1674
2023-04-02T10:18:10.145Z,61.2960
2023-04-02T10:19:12.250Z,62.6989
2023-04-02T10:20:14.426Z,60.9071
2023-04-02T10:21:14.867Z,60.8502
2023-04-02T10:22:16.989Z,60.7770
2023-04-02T10:23:19.353Z,59.9596
2023-04-02T10:24:21.432Z,62.1401
2023-04-02T10:25:23.563Z,63.8708
2023-04-02T10:26:25.705Z,63.2180
2023-04-02T10:27:27.801Z,62.0510
2023-04-02T10:28:30.276Z,62.4167
2023-04-02T10:29:32.410Z,62.2012
2023-04-02T10:30:34.553Z,60.8908
2023-04-02T10:31:36.716Z,62.1122
2023-04-02T10:32:38.831Z,62.3051
2023-04-02T10:33:41.034Z,62.2014
2023-04-02T10:34:43.342Z,63.7990
2023-04-02T10:35:45.543Z,62.3902
2023-04-02T10:36:47.652Z,62.4007
2023-04-02T10:37:49.772Z,63.6231
2023-04-02T10:38:51.888Z,64.9772
2023-04-02T10:39:54.015Z,63.6762
2023-04-02T10:40:57.025Z,65.9419
2023-04-02T10:41:59.186Z,66.0722
2023-04-02T10:43:01.324Z,65.4474
2023-04-02T10:44:16.654Z,65.6202
2023-04-02T10:45:04.639Z,62.8215
2023-04-02T10:46:06.807Z,62.3024
2023-04-02T10:47:08.899Z,62.7918
2023-04-02T10:48:11.084Z,62.8261
2023-04-02T10:49:13.197Z,61.3039
2023-04-02T10:50:15.245Z,60.9209
2023-04-02T10:51:17.397Z,59.8698
2023-04-02T10:52:19.468Z,59.9457
2023-04-02T10:53:21.642Z,60.2291
2023-04-02T10:54:23.721Z,59.2867
2023-04-02T10:55:25.833Z,61.0447
2023-04-02T10:56:29.809Z,59.1428
2023-04-02T10:57:29.159Z,59.5397
2023-04-02T10:58:31.226Z,61.0499
2023-04-02T10:59:33.297Z,59.8077
2023-04-02T11:00:35.457Z,58.4751
2023-04-02T11:01:37.655Z,58.4329
2023-04-02T11:02:39.874Z,57.6220
2023-04-02T11:03:42.190Z,56.1423
2023-04-02T11:04:44.370Z,54.0942
2023-04-02T11:05:46.559Z,55.4432
2023-04-02T11:06:48.699Z,56.0446
2023-04-02T11:07:50.836Z,56.0069
2023-04-02T11:08:52.962Z,53.0354
2023-04-02T11:09:55.126Z,53.2650
2023-04-02T11:10:57.294Z,54.9023
2023-04-02T11:11:59.410Z,57.2134
2023-04-02T11:13:01.754Z,58.1825
2023-04-02T11:14:03.929Z,57.2306
2023-04-02T11:15:06.026Z,57.8342
2023-04-02T11:16:08.224Z,58.1376
2023-04-02T11:17:10.356Z,58.1922
2023-04-02T11:18:12.473Z,54.8752
2023-04-02T11:19:14.624Z,54.2845
2023-04-02T11:20:16.771Z,51.6970
2023-04-02T11:21:18.913Z,54.4897
2023-04-02T11:22:21.082Z,57.2578
2023-04-02T11:23:23.219Z,58.9357
2023-04-02T11:24:25.378Z,59.3723
2023-04-02T11:25:27.774Z,58.5964
2023-04-02T11:26:29.909Z,59.9291
2023-04-02T11:27:32.063Z,57.0464
2023-04-02T11:28:34.271Z,54.6546
2023-04-02T11:29:36.422Z,51.9084
2023-04-02T11:30:38.552Z,52.6645
2023-04-02T11:31:40.777Z,54.1127
2023-04-02T11:32:43.168Z,52.3308
2023-04-02T11:33:47.364Z,52.3891
2023-04-02T11:34:56.387Z,56.5261
2023-04-02T11:35:48.734Z,55.9643
2023-04-02T11:36:50.884Z,51.2907
2023-04-02T11:37:53.063Z,45.7781
2023-04-02T11:38:59.635Z,44.1412
2023-04-02T11:39:56.398Z,48.3686
2023-04-02T11:40:58.546Z,46.8485
2023-04-02T11:42:00.714Z,48.5123
2023-04-02T11:43:02.900Z,49.0979
2023-04-02T11:44:05.018Z,49.2642
2023-04-02T11:45:07.196Z,49.3434
2023-04-02T11:46:09.341Z,49.5195
2023-04-02T11:47:11.479Z,52.3624
2023-04-02T11:48:13.651Z,53.7722
2023-04-02T11:49:15.979Z,54.0039
2023-04-02T11:50:18.228Z,55.8979
2023-04-02T11:51:21.329Z,56.2064
2023-04-02T11:52:23.810Z,56.8532
2023-04-02T11:53:25.951Z,56.1546
2023-04-02T11:54:28.083Z,52.1837
2023-04-02T11:55:30.212Z,51.9150
2023-04-02T11:56:32.324Z,54.1374
2023-04-02T11:57:34.577Z,56.1379
2023-04-02T11:58:36.772Z,56.4693
2023-04-02T11:59:38.915Z,58.7952
2023-04-02T12:00:41.326Z,56.6332
2023-04-02T12:01:43.455Z,56.1261
2023-04-02T12:02:45.716Z,57.3230
2023-04-02T12:03:47.874Z,58.2129
2023-04-02T12:04:49.996Z,61.2483
2023-04-02T12:05:52.117Z,61.0113
2023-04-02T12:06:54.266Z,61.7672
2023-04-02T12:07:56.438Z,61.3464
2023-04-02T12:08:58.580Z,61.5201
2023-04-02T12:10:00.724Z,61.3493
2023-04-02T12:11:02.876Z,61.4007
2023-04-02T12:12:04.991Z,59.5828
2023-04-02T12:13:07.151Z,58.8463
2023-04-02T12:14:09.313Z,61.2792
2023-04-02T12:15:11.540Z,62.3660
2023-04-02T12:16:13.694Z,62.0742
2023-04-02T12:17:15.884Z,59.7071
2023-04-02T12:18:18.018Z,59.4758
2023-04-02T12:19:20.195Z,60.7653
2023-04-02T12:20:22.335Z,60.5275
2023-04-02T12:21:24.465Z,60.1916
2023-04-02T12:22:26.856Z,59.5504
2023-04-02T12:23:28.977Z,61.9454
2023-04-02T12:24:31.141Z,62.2031
2023-04-02T12:25:33.310Z,60.2177
2023-04-02T12:26:35.442Z,58.7614
2023-04-02T12:27:37.651Z,58.4241
2023-04-02T12:28:39.791Z,59.4909
2023-04-02T12:29:41.915Z,61.1600
2023-04-02T12:30:44.201Z,60.6014
2023-04-02T12:31:46.321Z,60.0783
2023-04-02T12:32:48.448Z,59.8150
2023-04-02T12:33:50.543Z,58.7371
2023-04-02T12:34:52.709Z,58.5655
2023-04-02T12:35:54.853Z,59.9748
2023-04-02T12:36:56.989Z,58.0910
2023-04-02T12:37:59.157Z,58.8329
2023-04-02T12:39:01.272Z,59.7898
2023-04-02T12:40:03.409Z,61.6614
2023-04-02T12:41:05.507Z,62.7788